sensor_id;sensor_type;location;lat;lon;timestamp;P1;durP1;ratioP1;P2;durP2;ratioP2
6356;SDS011;3211;53.452;-2.264;2022-11-14T00:01:17;35.20;;;19.60;;
6356;SDS011;3211;53.452;-2.264;2022-11-14T00:03:49;35.93;;;20.20;;
6356;SDS011;3211;53.452;-2.264;2022-11-14T00:06:16;35.17;;;19.97;;
6356;SDS011;3211;53.452;-2.264;2022-11-14T00:08:43;32.90;;;19.03;;
6356;SDS011;3211;53.452;-2.264;2022-11-14T00:11:10;34.87;;;20.00;;
6356;SDS011;3211;53.452;-2.264;2022-11-14T00:13:37;31.70;;;17.97;;
6356;SDS011;3211;53.452;-2.264;2022-11-14T00:16:04;28.50;;;17.43;;
6356;SDS011;3211;53.452;-2.264;2022-11-14T00:18:31;35.83;;;18.60;;
6356;SDS011;3211;53.452;-2.264;2022-11-14T00:20:59;30.07;;;19.40;;
6356;SDS011;3211;53.452;-2.264;2022-11-14T00:23:26;30.33;;;20.03;;
6356;SDS011;3211;53.452;-2.264;2022-11-14T00:25:53;29.50;;;18.70;;
6356;SDS011;3211;53.452;-2.264;2022-11-14T00:28:20;30.17;;;18.30;;
6356;SDS011;3211;53.452;-2.264;2022-11-14T00:30:47;28.77;;;17.50;;
6356;SDS011;3211;53.452;-2.264;2022-11-14T00:33:15;33.07;;;18.97;;
6356;SDS011;3211;53.452;-2.264;2022-11-14T00:35:48;31.10;;;18.67;;
6356;SDS011;3211;53.452;-2.264;2022-11-14T00:38:18;29.70;;;18.77;;
6356;SDS011;3211;53.452;-2.264;2022-11-14T00:40:45;30.03;;;19.17;;
6356;SDS011;3211;53.452;-2.264;2022-11-14T00:43:12;32.90;;;19.23;;
6356;SDS011;3211;53.452;-2.264;2022-11-14T00:45:41;29.57;;;18.77;;
6356;SDS011;3211;53.452;-2.264;2022-11-14T00:48:09;28.50;;;18.40;;
6356;SDS011;3211;53.452;-2.264;2022-11-14T00:50:36;32.23;;;18.97;;
6356;SDS011;3211;53.452;-2.264;2022-11-14T00:53:03;35.20;;;19.50;;
6356;SDS011;3211;53.452;-2.264;2022-11-14T00:55:31;30.80;;;19.80;;
6356;SDS011;3211;53.452;-2.264;2022-11-14T00:57:58;35.70;;;20.43;;
6356;SDS011;3211;53.452;-2.264;2022-11-14T01:00:25;31.10;;;18.90;;
6356;SDS011;3211;53.452;-2.264;2022-11-14T01:02:52;28.27;;;18.53;;
6356;SDS011;3211;53.452;-2.264;2022-11-14T01:05:22;29.23;;;18.33;;
6356;SDS011;3211;53.452;-2.264;2022-11-14T01:07:49;29.83;;;18.50;;
6356;SDS011;3211;53.452;-2.264;2022-11-14T01:10:17;27.90;;;17.17;;
6356;SDS011;3211;53.452;-2.264;2022-11-14T01:12:46;28.40;;;19.00;;
6356;SDS011;3211;53.452;-2.264;2022-11-14T01:15:13;28.10;;;18.43;;
6356;SDS011;3211;53.452;-2.264;2022-11-14T01:17:40;29.60;;;18.13;;
6356;SDS011;3211;53.452;-2.264;2022-11-14T01:20:07;26.10;;;17.93;;
6356;SDS011;3211;53.452;-2.264;2022-11-14T01:22:34;31.43;;;18.23;;
6356;SDS011;3211;53.452;-2.264;2022-11-14T01:25:01;27.40;;;17.40;;
6356;SDS011;3211;53.452;-2.264;2022-11-14T01:27:29;30.93;;;18.00;;
6356;SDS011;3211;53.452;-2.264;2022-11-14T01:29:57;28.57;;;18.80;;
6356;SDS011;3211;53.452;-2.264;2022-11-14T01:32:24;28.07;;;17.33;;
6356;SDS011;3211;53.452;-2.264;2022-11-14T01:34:52;31.00;;;18.03;;
6356;SDS011;3211;53.452;-2.264;2022-11-14T01:37:20;27.00;;;17.57;;
6356;SDS011;3211;53.452;-2.264;2022-11-14T01:39:47;30.40;;;17.83;;
6356;SDS011;3211;53.452;-2.264;2022-11-14T01:42:14;27.33;;;17.67;;
6356;SDS011;3211;53.452;-2.264;2022-11-14T01:44:44;28.43;;;19.37;;
6356;SDS011;3211;53.452;-2.264;2022-11-14T01:47:15;27.70;;;17.03;;
6356;SDS011;3211;53.452;-2.264;2022-11-14T01:49:44;30.70;;;17.63;;
6356;SDS011;3211;53.452;-2.264;2022-11-14T01:52:14;23.83;;;17.40;;
6356;SDS011;3211;53.452;-2.264;2022-11-14T01:54:44;25.97;;;17.37;;
6356;SDS011;3211;53.452;-2.264;2022-11-14T01:57:13;25.37;;;17.50;;
6356;SDS011;3211;53.452;-2.264;2022-11-14T01:59:45;32.97;;;19.47;;
6356;SDS011;3211;53.452;-2.264;2022-11-14T02:02:17;29.50;;;18.93;;
6356;SDS011;3211;53.452;-2.264;2022-11-14T02:04:46;31.37;;;17.53;;
6356;SDS011;3211;53.452;-2.264;2022-11-14T02:07:17;28.20;;;17.87;;
6356;SDS011;3211;53.452;-2.264;2022-11-14T02:09:45;25.50;;;18.00;;
6356;SDS011;3211;53.452;-2.264;2022-11-14T02:12:15;26.13;;;17.60;;
6356;SDS011;3211;53.452;-2.264;2022-11-14T02:14:43;27.83;;;17.47;;
6356;SDS011;3211;53.452;-2.264;2022-11-14T02:17:12;31.30;;;18.20;;
6356;SDS011;3211;53.452;-2.264;2022-11-14T02:19:42;26.30;;;16.90;;
6356;SDS011;3211;53.452;-2.264;2022-11-14T02:22:13;24.63;;;16.83;;
6356;SDS011;3211;53.452;-2.264;2022-11-14T02:24:40;30.27;;;18.40;;
6356;SDS011;3211;53.452;-2.264;2022-11-14T02:27:08;26.47;;;16.30;;
6356;SDS011;3211;53.452;-2.264;2022-11-14T02:29:36;29.43;;;16.80;;
6356;SDS011;3211;53.452;-2.264;2022-11-14T02:32:04;25.80;;;15.40;;
6356;SDS011;3211;53.452;-2.264;2022-11-14T02:34:32;26.17;;;16.50;;
6356;SDS011;3211;53.452;-2.264;2022-11-14T02:36:59;24.27;;;16.00;;
6356;SDS011;3211;53.452;-2.264;2022-11-14T02:39:27;24.20;;;16.60;;
6356;SDS011;3211;53.452;-2.264;2022-11-14T02:41:54;26.03;;;16.90;;
6356;SDS011;3211;53.452;-2.264;2022-11-14T02:44:21;20.37;;;15.00;;
6356;SDS011;3211;53.452;-2.264;2022-11-14T02:46:48;29.23;;;16.67;;
6356;SDS011;3211;53.452;-2.264;2022-11-14T02:49:15;25.90;;;15.47;;
6356;SDS011;3211;53.452;-2.264;2022-11-14T02:51:42;21.57;;;15.03;;
6356;SDS011;3211;53.452;-2.264;2022-11-14T02:54:09;23.93;;;16.50;;
6356;SDS011;3211;53.452;-2.264;2022-11-14T02:56:37;24.73;;;15.80;;
6356;SDS011;3211;53.452;-2.264;2022-11-14T02:59:04;21.40;;;14.00;;
6356;SDS011;3211;53.452;-2.264;2022-11-14T03:01:31;26.13;;;14.70;;
6356;SDS011;3211;53.452;-2.264;2022-11-14T03:03:58;30.83;;;15.63;;
6356;SDS011;3211;53.452;-2.264;2022-11-14T03:06:25;22.03;;;14.67;;
6356;SDS011;3211;53.452;-2.264;2022-11-14T03:08:52;20.47;;;14.00;;
6356;SDS011;3211;53.452;-2.264;2022-11-14T03:11:19;20.20;;;15.17;;
6356;SDS011;3211;53.452;-2.264;2022-11-14T03:13:47;23.43;;;14.83;;
6356;SDS011;3211;53.452;-2.264;2022-11-14T03:16:14;19.43;;;14.23;;
6356;SDS011;3211;53.452;-2.264;2022-11-14T03:18:41;22.40;;;14.20;;
6356;SDS011;3211;53.452;-2.264;2022-11-14T03:21:09;22.03;;;14.67;;
6356;SDS011;3211;53.452;-2.264;2022-11-14T03:23:37;22.27;;;14.57;;
6356;SDS011;3211;53.452;-2.264;2022-11-14T03:26:05;21.20;;;14.30;;
6356;SDS011;3211;53.452;-2.264;2022-11-14T03:28:33;19.80;;;14.60;;
6356;SDS011;3211;53.452;-2.264;2022-11-14T03:31:01;22.53;;;15.60;;
6356;SDS011;3211;53.452;-2.264;2022-11-14T03:33:29;24.83;;;15.03;;
6356;SDS011;3211;53.452;-2.264;2022-11-14T03:35:57;20.87;;;14.10;;
6356;SDS011;3211;53.452;-2.264;2022-11-14T03:38:24;19.60;;;13.90;;
6356;SDS011;3211;53.452;-2.264;2022-11-14T03:40:51;22.30;;;15.07;;
6356;SDS011;3211;53.452;-2.264;2022-11-14T03:43:19;22.00;;;15.40;;
6356;SDS011;3211;53.452;-2.264;2022-11-14T03:45:47;20.80;;;14.13;;
6356;SDS011;3211;53.452;-2.264;2022-11-14T03:48:15;25.00;;;15.70;;
6356;SDS011;3211;53.452;-2.264;2022-11-14T03:50:42;22.97;;;15.90;;
6356;SDS011;3211;53.452;-2.264;2022-11-14T03:53:09;29.27;;;15.70;;
6356;SDS011;3211;53.452;-2.264;2022-11-14T03:55:36;26.10;;;15.20;;
6356;SDS011;3211;53.452;-2.264;2022-11-14T03:58:04;22.67;;;13.93;;
6356;SDS011;3211;53.452;-2.264;2022-11-14T04:00:31;21.73;;;15.03;;
6356;SDS011;3211;53.452;-2.264;2022-11-14T04:02:58;21.97;;;13.70;;
6356;SDS011;3211;53.452;-2.264;2022-11-14T04:05:26;22.00;;;15.07;;
6356;SDS011;3211;53.452;-2.264;2022-11-14T04:07:54;19.40;;;14.07;;
6356;SDS011;3211;53.452;-2.264;2022-11-14T04:10:21;30.43;;;15.87;;
6356;SDS011;3211;53.452;-2.264;2022-11-14T04:12:48;28.63;;;15.70;;
6356;SDS011;3211;53.452;-2.264;2022-11-14T04:15:15;23.97;;;16.27;;
6356;SDS011;3211;53.452;-2.264;2022-11-14T04:17:43;24.17;;;15.53;;
6356;SDS011;3211;53.452;-2.264;2022-11-14T04:20:11;22.87;;;14.80;;
6356;SDS011;3211;53.452;-2.264;2022-11-14T04:22:40;26.20;;;16.00;;
6356;SDS011;3211;53.452;-2.264;2022-11-14T04:25:07;21.37;;;16.13;;
6356;SDS011;3211;53.452;-2.264;2022-11-14T04:27:35;24.80;;;14.93;;
6356;SDS011;3211;53.452;-2.264;2022-11-14T04:30:02;24.80;;;16.53;;
6356;SDS011;3211;53.452;-2.264;2022-11-14T04:32:29;22.20;;;15.37;;
6356;SDS011;3211;53.452;-2.264;2022-11-14T04:34:57;23.13;;;15.27;;
6356;SDS011;3211;53.452;-2.264;2022-11-14T04:37:25;23.83;;;16.70;;
6356;SDS011;3211;53.452;-2.264;2022-11-14T04:39:53;24.73;;;16.23;;
6356;SDS011;3211;53.452;-2.264;2022-11-14T04:42:25;25.40;;;16.13;;
6356;SDS011;3211;53.452;-2.264;2022-11-14T04:44:52;27.13;;;17.43;;
6356;SDS011;3211;53.452;-2.264;2022-11-14T04:47:19;29.30;;;18.63;;
6356;SDS011;3211;53.452;-2.264;2022-11-14T04:49:46;30.07;;;17.37;;
6356;SDS011;3211;53.452;-2.264;2022-11-14T04:52:13;25.60;;;17.10;;
6356;SDS011;3211;53.452;-2.264;2022-11-14T04:54:40;29.03;;;17.73;;
6356;SDS011;3211;53.452;-2.264;2022-11-14T04:57:08;24.97;;;16.07;;
6356;SDS011;3211;53.452;-2.264;2022-11-14T04:59:35;25.20;;;16.53;;
6356;SDS011;3211;53.452;-2.264;2022-11-14T05:02:02;30.67;;;18.40;;
6356;SDS011;3211;53.452;-2.264;2022-11-14T05:04:29;28.23;;;17.37;;
6356;SDS011;3211;53.452;-2.264;2022-11-14T05:06:56;33.17;;;18.53;;
6356;SDS011;3211;53.452;-2.264;2022-11-14T05:09:23;28.30;;;18.07;;
6356;SDS011;3211;53.452;-2.264;2022-11-14T05:11:50;31.13;;;19.10;;
6356;SDS011;3211;53.452;-2.264;2022-11-14T05:14:18;32.27;;;18.70;;
6356;SDS011;3211;53.452;-2.264;2022-11-14T05:16:45;26.33;;;17.73;;
6356;SDS011;3211;53.452;-2.264;2022-11-14T05:19:12;28.77;;;17.63;;
6356;SDS011;3211;53.452;-2.264;2022-11-14T05:21:39;31.73;;;19.87;;
6356;SDS011;3211;53.452;-2.264;2022-11-14T05:24:06;29.67;;;18.57;;
6356;SDS011;3211;53.452;-2.264;2022-11-14T05:26:33;25.60;;;16.47;;
6356;SDS011;3211;53.452;-2.264;2022-11-14T05:29:00;28.47;;;18.63;;
6356;SDS011;3211;53.452;-2.264;2022-11-14T05:31:29;28.50;;;19.10;;
6356;SDS011;3211;53.452;-2.264;2022-11-14T05:33:56;31.93;;;20.40;;
6356;SDS011;3211;53.452;-2.264;2022-11-14T05:36:23;25.70;;;16.97;;
6356;SDS011;3211;53.452;-2.264;2022-11-14T05:38:50;26.97;;;17.93;;
6356;SDS011;3211;53.452;-2.264;2022-11-14T05:41:17;30.63;;;17.73;;
6356;SDS011;3211;53.452;-2.264;2022-11-14T05:43:45;30.50;;;18.60;;
6356;SDS011;3211;53.452;-2.264;2022-11-14T05:46:13;30.93;;;18.70;;
6356;SDS011;3211;53.452;-2.264;2022-11-14T05:48:42;26.73;;;17.50;;
6356;SDS011;3211;53.452;-2.264;2022-11-14T05:51:10;31.63;;;18.20;;
6356;SDS011;3211;53.452;-2.264;2022-11-14T05:53:38;25.07;;;16.90;;
6356;SDS011;3211;53.452;-2.264;2022-11-14T05:56:06;24.53;;;16.87;;
6356;SDS011;3211;53.452;-2.264;2022-11-14T05:58:35;29.50;;;19.23;;
6356;SDS011;3211;53.452;-2.264;2022-11-14T06:01:03;29.87;;;18.67;;
6356;SDS011;3211;53.452;-2.264;2022-11-14T06:03:32;34.40;;;19.17;;
6356;SDS011;3211;53.452;-2.264;2022-11-14T06:06:01;28.90;;;18.10;;
6356;SDS011;3211;53.452;-2.264;2022-11-14T06:08:30;28.80;;;17.80;;
6356;SDS011;3211;53.452;-2.264;2022-11-14T06:11:00;29.67;;;18.80;;
6356;SDS011;3211;53.452;-2.264;2022-11-14T06:13:28;26.87;;;18.03;;
6356;SDS011;3211;53.452;-2.264;2022-11-14T06:15:57;31.77;;;19.57;;
6356;SDS011;3211;53.452;-2.264;2022-11-14T06:18:25;27.63;;;18.33;;
6356;SDS011;3211;53.452;-2.264;2022-11-14T06:20:52;33.73;;;19.03;;
6356;SDS011;3211;53.452;-2.264;2022-11-14T06:23:20;29.23;;;17.50;;
6356;SDS011;3211;53.452;-2.264;2022-11-14T06:25:47;27.07;;;18.33;;
6356;SDS011;3211;53.452;-2.264;2022-11-14T06:28:14;28.27;;;18.03;;
6356;SDS011;3211;53.452;-2.264;2022-11-14T06:30:41;30.03;;;18.50;;
6356;SDS011;3211;53.452;-2.264;2022-11-14T06:33:08;30.43;;;17.57;;
6356;SDS011;3211;53.452;-2.264;2022-11-14T06:35:35;29.77;;;18.37;;
6356;SDS011;3211;53.452;-2.264;2022-11-14T06:38:02;30.37;;;17.63;;
6356;SDS011;3211;53.452;-2.264;2022-11-14T06:40:30;29.63;;;18.83;;
6356;SDS011;3211;53.452;-2.264;2022-11-14T06:42:57;36.87;;;19.40;;
6356;SDS011;3211;53.452;-2.264;2022-11-14T06:45:24;31.03;;;19.37;;
6356;SDS011;3211;53.452;-2.264;2022-11-14T06:47:51;28.77;;;18.93;;
6356;SDS011;3211;53.452;-2.264;2022-11-14T06:50:18;29.70;;;18.30;;
6356;SDS011;3211;53.452;-2.264;2022-11-14T06:52:45;29.13;;;18.93;;
6356;SDS011;3211;53.452;-2.264;2022-11-14T06:55:12;35.70;;;20.73;;
6356;SDS011;3211;53.452;-2.264;2022-11-14T06:57:40;32.63;;;19.50;;
6356;SDS011;3211;53.452;-2.264;2022-11-14T07:00:08;31.10;;;21.17;;
6356;SDS011;3211;53.452;-2.264;2022-11-14T07:02:35;30.80;;;19.90;;
6356;SDS011;3211;53.452;-2.264;2022-11-14T07:05:02;35.37;;;20.97;;
6356;SDS011;3211;53.452;-2.264;2022-11-14T07:07:29;35.30;;;20.37;;
6356;SDS011;3211;53.452;-2.264;2022-11-14T07:09:56;32.80;;;20.47;;
6356;SDS011;3211;53.452;-2.264;2022-11-14T07:12:23;28.57;;;18.40;;
6356;SDS011;3211;53.452;-2.264;2022-11-14T07:14:52;30.50;;;20.03;;
6356;SDS011;3211;53.452;-2.264;2022-11-14T07:17:19;33.00;;;20.00;;
6356;SDS011;3211;53.452;-2.264;2022-11-14T07:19:46;29.33;;;18.33;;
6356;SDS011;3211;53.452;-2.264;2022-11-14T07:22:13;33.07;;;19.40;;
6356;SDS011;3211;53.452;-2.264;2022-11-14T07:24:40;35.30;;;19.30;;
6356;SDS011;3211;53.452;-2.264;2022-11-14T07:27:07;33.40;;;20.80;;
6356;SDS011;3211;53.452;-2.264;2022-11-14T07:29:36;31.20;;;20.07;;
6356;SDS011;3211;53.452;-2.264;2022-11-14T07:32:04;34.97;;;19.60;;
6356;SDS011;3211;53.452;-2.264;2022-11-14T07:34:31;33.03;;;20.43;;
6356;SDS011;3211;53.452;-2.264;2022-11-14T07:36:58;31.73;;;19.90;;
6356;SDS011;3211;53.452;-2.264;2022-11-14T07:39:25;33.53;;;19.00;;
6356;SDS011;3211;53.452;-2.264;2022-11-14T07:41:52;29.37;;;18.90;;
6356;SDS011;3211;53.452;-2.264;2022-11-14T07:44:19;30.10;;;19.20;;
6356;SDS011;3211;53.452;-2.264;2022-11-14T07:46:46;31.97;;;19.53;;
6356;SDS011;3211;53.452;-2.264;2022-11-14T07:49:15;28.57;;;18.80;;
6356;SDS011;3211;53.452;-2.264;2022-11-14T07:51:42;34.10;;;19.37;;
6356;SDS011;3211;53.452;-2.264;2022-11-14T07:54:09;31.30;;;19.90;;
6356;SDS011;3211;53.452;-2.264;2022-11-14T07:56:37;29.20;;;18.30;;
6356;SDS011;3211;53.452;-2.264;2022-11-14T07:59:04;30.73;;;18.43;;
6356;SDS011;3211;53.452;-2.264;2022-11-14T08:01:31;26.70;;;18.23;;
6356;SDS011;3211;53.452;-2.264;2022-11-14T08:03:58;29.57;;;18.40;;
6356;SDS011;3211;53.452;-2.264;2022-11-14T08:06:26;29.07;;;19.50;;
6356;SDS011;3211;53.452;-2.264;2022-11-14T08:08:53;32.23;;;19.43;;
6356;SDS011;3211;53.452;-2.264;2022-11-14T08:11:20;30.80;;;19.67;;
6356;SDS011;3211;53.452;-2.264;2022-11-14T08:14:01;28.37;;;18.93;;
6356;SDS011;3211;53.452;-2.264;2022-11-14T08:16:28;27.53;;;18.77;;
6356;SDS011;3211;53.452;-2.264;2022-11-14T08:19:14;31.90;;;19.37;;
6356;SDS011;3211;53.452;-2.264;2022-11-14T08:21:43;33.23;;;19.50;;
6356;SDS011;3211;53.452;-2.264;2022-11-14T08:24:15;32.70;;;18.83;;
6356;SDS011;3211;53.452;-2.264;2022-11-14T08:26:42;30.77;;;19.97;;
6356;SDS011;3211;53.452;-2.264;2022-11-14T08:29:09;29.33;;;19.87;;
6356;SDS011;3211;53.452;-2.264;2022-11-14T08:31:36;34.50;;;22.67;;
6356;SDS011;3211;53.452;-2.264;2022-11-14T08:34:03;32.90;;;19.07;;
6356;SDS011;3211;53.452;-2.264;2022-11-14T08:36:30;31.57;;;20.43;;
6356;SDS011;3211;53.452;-2.264;2022-11-14T08:38:58;29.47;;;19.10;;
6356;SDS011;3211;53.452;-2.264;2022-11-14T08:41:25;37.20;;;21.87;;
6356;SDS011;3211;53.452;-2.264;2022-11-14T08:43:53;36.73;;;20.30;;
6356;SDS011;3211;53.452;-2.264;2022-11-14T08:46:20;34.30;;;20.67;;
6356;SDS011;3211;53.452;-2.264;2022-11-14T08:48:47;40.00;;;20.80;;
6356;SDS011;3211;53.452;-2.264;2022-11-14T08:51:14;37.90;;;20.70;;
6356;SDS011;3211;53.452;-2.264;2022-11-14T08:53:41;48.77;;;21.23;;
6356;SDS011;3211;53.452;-2.264;2022-11-14T08:56:09;34.40;;;18.40;;
6356;SDS011;3211;53.452;-2.264;2022-11-14T08:58:37;42.87;;;20.77;;
6356;SDS011;3211;53.452;-2.264;2022-11-14T09:01:04;32.53;;;18.73;;
6356;SDS011;3211;53.452;-2.264;2022-11-14T09:03:32;31.47;;;19.50;;
6356;SDS011;3211;53.452;-2.264;2022-11-14T09:06:00;41.47;;;19.77;;
6356;SDS011;3211;53.452;-2.264;2022-11-14T09:08:28;35.40;;;19.37;;
6356;SDS011;3211;53.452;-2.264;2022-11-14T09:10:55;45.87;;;19.63;;
6356;SDS011;3211;53.452;-2.264;2022-11-14T09:13:27;42.10;;;19.03;;
6356;SDS011;3211;53.452;-2.264;2022-11-14T09:15:54;42.77;;;19.80;;
6356;SDS011;3211;53.452;-2.264;2022-11-14T09:18:21;39.93;;;19.07;;
6356;SDS011;3211;53.452;-2.264;2022-11-14T09:20:48;35.27;;;18.70;;
6356;SDS011;3211;53.452;-2.264;2022-11-14T09:23:15;38.90;;;18.30;;
6356;SDS011;3211;53.452;-2.264;2022-11-14T09:25:42;36.10;;;20.07;;
6356;SDS011;3211;53.452;-2.264;2022-11-14T09:28:09;32.53;;;19.40;;
6356;SDS011;3211;53.452;-2.264;2022-11-14T09:30:38;28.07;;;18.77;;
6356;SDS011;3211;53.452;-2.264;2022-11-14T09:33:06;35.17;;;19.07;;
6356;SDS011;3211;53.452;-2.264;2022-11-14T09:35:33;33.97;;;20.07;;
6356;SDS011;3211;53.452;-2.264;2022-11-14T09:38:02;32.20;;;19.53;;
6356;SDS011;3211;53.452;-2.264;2022-11-14T09:40:30;35.00;;;19.07;;
6356;SDS011;3211;53.452;-2.264;2022-11-14T09:43:16;34.30;;;18.97;;
6356;SDS011;3211;53.452;-2.264;2022-11-14T09:46:00;32.40;;;18.70;;
6356;SDS011;3211;53.452;-2.264;2022-11-14T09:48:28;42.20;;;19.20;;
6356;SDS011;3211;53.452;-2.264;2022-11-14T09:51:01;25.90;;;17.13;;
6356;SDS011;3211;53.452;-2.264;2022-11-14T09:53:33;32.27;;;18.30;;
6356;SDS011;3211;53.452;-2.264;2022-11-14T09:56:02;29.60;;;16.53;;
6356;SDS011;3211;53.452;-2.264;2022-11-14T09:58:29;27.00;;;15.83;;
6356;SDS011;3211;53.452;-2.264;2022-11-14T10:00:57;24.80;;;15.90;;
6356;SDS011;3211;53.452;-2.264;2022-11-14T10:03:32;25.40;;;16.70;;
6356;SDS011;3211;53.452;-2.264;2022-11-14T10:06:14;25.70;;;15.93;;
6356;SDS011;3211;53.452;-2.264;2022-11-14T10:08:49;20.10;;;14.20;;
6356;SDS011;3211;53.452;-2.264;2022-11-14T10:11:28;25.30;;;15.87;;
6356;SDS011;3211;53.452;-2.264;2022-11-14T10:17:06;24.57;;;16.17;;
6356;SDS011;3211;53.452;-2.264;2022-11-14T10:19:46;26.07;;;14.57;;
6356;SDS011;3211;53.452;-2.264;2022-11-14T10:22:22;21.77;;;14.10;;
6356;SDS011;3211;53.452;-2.264;2022-11-14T10:25:13;21.47;;;13.03;;
6356;SDS011;3211;53.452;-2.264;2022-11-14T10:27:50;18.20;;;12.77;;
6356;SDS011;3211;53.452;-2.264;2022-11-14T10:30:28;18.27;;;12.03;;
6356;SDS011;3211;53.452;-2.264;2022-11-14T10:33:10;19.10;;;13.10;;
6356;SDS011;3211;53.452;-2.264;2022-11-14T10:35:44;19.67;;;12.87;;
6356;SDS011;3211;53.452;-2.264;2022-11-14T10:38:18;17.20;;;12.47;;
6356;SDS011;3211;53.452;-2.264;2022-11-14T10:40:53;25.10;;;11.63;;
6356;SDS011;3211;53.452;-2.264;2022-11-14T10:43:25;20.47;;;12.60;;
6356;SDS011;3211;53.452;-2.264;2022-11-14T10:45:59;19.13;;;13.00;;
6356;SDS011;3211;53.452;-2.264;2022-11-14T10:48:32;16.10;;;11.93;;
6356;SDS011;3211;53.452;-2.264;2022-11-14T10:51:05;19.40;;;12.27;;
6356;SDS011;3211;53.452;-2.264;2022-11-14T10:53:44;18.60;;;13.10;;
6356;SDS011;3211;53.452;-2.264;2022-11-14T10:56:15;14.13;;;10.70;;
6356;SDS011;3211;53.452;-2.264;2022-11-14T10:58:42;15.40;;;11.87;;
6356;SDS011;3211;53.452;-2.264;2022-11-14T11:04:11;16.60;;;11.30;;
6356;SDS011;3211;53.452;-2.264;2022-11-14T11:06:40;14.23;;;10.40;;
6356;SDS011;3211;53.452;-2.264;2022-11-14T11:09:08;15.70;;;11.13;;
6356;SDS011;3211;53.452;-2.264;2022-11-14T11:11:56;9.80;;;7.53;;
6356;SDS011;3211;53.452;-2.264;2022-11-14T11:14:25;9.33;;;7.70;;
6356;SDS011;3211;53.452;-2.264;2022-11-14T11:17:06;9.93;;;7.90;;
6356;SDS011;3211;53.452;-2.264;2022-11-14T11:19:41;9.93;;;7.03;;
6356;SDS011;3211;53.452;-2.264;2022-11-14T11:22:22;9.57;;;8.17;;
6356;SDS011;3211;53.452;-2.264;2022-11-14T11:24:51;11.70;;;8.13;;
6356;SDS011;3211;53.452;-2.264;2022-11-14T11:27:20;9.93;;;7.60;;
6356;SDS011;3211;53.452;-2.264;2022-11-14T11:29:55;9.40;;;8.07;;
6356;SDS011;3211;53.452;-2.264;2022-11-14T11:32:32;13.13;;;8.40;;
6356;SDS011;3211;53.452;-2.264;2022-11-14T11:35:01;13.30;;;7.97;;
6356;SDS011;3211;53.452;-2.264;2022-11-14T11:37:35;22.57;;;9.00;;
6356;SDS011;3211;53.452;-2.264;2022-11-14T11:40:05;11.73;;;9.20;;
6356;SDS011;3211;53.452;-2.264;2022-11-14T11:42:41;17.27;;;9.07;;
6356;SDS011;3211;53.452;-2.264;2022-11-14T11:45:15;11.00;;;8.20;;
6356;SDS011;3211;53.452;-2.264;2022-11-14T11:47:43;10.30;;;8.03;;
6356;SDS011;3211;53.452;-2.264;2022-11-14T11:50:18;11.67;;;8.37;;
6356;SDS011;3211;53.452;-2.264;2022-11-14T11:52:47;12.03;;;8.77;;
6356;SDS011;3211;53.452;-2.264;2022-11-14T11:55:23;13.23;;;8.70;;
6356;SDS011;3211;53.452;-2.264;2022-11-14T11:57:55;14.90;;;8.93;;
6356;SDS011;3211;53.452;-2.264;2022-11-14T12:00:27;11.03;;;8.27;;
6356;SDS011;3211;53.452;-2.264;2022-11-14T12:02:55;12.57;;;8.60;;
6356;SDS011;3211;53.452;-2.264;2022-11-14T12:05:27;13.00;;;7.93;;
6356;SDS011;3211;53.452;-2.264;2022-11-14T12:08:02;11.93;;;8.17;;
6356;SDS011;3211;53.452;-2.264;2022-11-14T12:10:35;10.23;;;7.17;;
6356;SDS011;3211;53.452;-2.264;2022-11-14T12:13:13;11.57;;;7.60;;
6356;SDS011;3211;53.452;-2.264;2022-11-14T12:16:08;14.60;;;7.67;;
6356;SDS011;3211;53.452;-2.264;2022-11-14T12:21:59;11.00;;;7.83;;
6356;SDS011;3211;53.452;-2.264;2022-11-14T12:27:37;9.50;;;7.47;;
6356;SDS011;3211;53.452;-2.264;2022-11-14T12:30:14;11.23;;;7.63;;
6356;SDS011;3211;53.452;-2.264;2022-11-14T12:32:45;11.30;;;7.60;;
6356;SDS011;3211;53.452;-2.264;2022-11-14T12:35:17;10.40;;;7.40;;
6356;SDS011;3211;53.452;-2.264;2022-11-14T12:37:48;14.60;;;8.63;;
6356;SDS011;3211;53.452;-2.264;2022-11-14T12:40:20;10.90;;;7.10;;
6356;SDS011;3211;53.452;-2.264;2022-11-14T12:42:49;9.67;;;7.50;;
6356;SDS011;3211;53.452;-2.264;2022-11-14T12:48:20;9.40;;;6.80;;
6356;SDS011;3211;53.452;-2.264;2022-11-14T12:50:48;10.20;;;6.37;;
6356;SDS011;3211;53.452;-2.264;2022-11-14T12:59:16;11.40;;;7.70;;
6356;SDS011;3211;53.452;-2.264;2022-11-14T13:02:24;9.30;;;7.40;;
6356;SDS011;3211;53.452;-2.264;2022-11-14T13:05:14;7.23;;;5.70;;
6356;SDS011;3211;53.452;-2.264;2022-11-14T13:08:02;8.23;;;5.97;;
6356;SDS011;3211;53.452;-2.264;2022-11-14T14:05:06;5.27;;;4.40;;
6356;SDS011;3211;53.452;-2.264;2022-11-14T14:07:49;5.77;;;4.03;;
6356;SDS011;3211;53.452;-2.264;2022-11-14T14:10:26;9.43;;;4.77;;
6356;SDS011;3211;53.452;-2.264;2022-11-14T14:13:04;6.17;;;4.30;;
6356;SDS011;3211;53.452;-2.264;2022-11-14T14:15:41;6.83;;;3.90;;
6356;SDS011;3211;53.452;-2.264;2022-11-14T14:18:18;6.67;;;4.33;;
6356;SDS011;3211;53.452;-2.264;2022-11-14T14:20:57;6.17;;;4.07;;
6356;SDS011;3211;53.452;-2.264;2022-11-14T14:23:33;5.53;;;4.27;;
6356;SDS011;3211;53.452;-2.264;2022-11-14T14:26:13;4.80;;;4.30;;
6356;SDS011;3211;53.452;-2.264;2022-11-14T14:28:50;6.70;;;4.27;;
6356;SDS011;3211;53.452;-2.264;2022-11-14T14:31:23;6.57;;;4.57;;
6356;SDS011;3211;53.452;-2.264;2022-11-14T14:34:00;6.57;;;5.00;;
6356;SDS011;3211;53.452;-2.264;2022-11-14T14:36:28;5.90;;;4.70;;
6356;SDS011;3211;53.452;-2.264;2022-11-14T14:39:10;7.17;;;4.87;;
6356;SDS011;3211;53.452;-2.264;2022-11-14T14:42:00;6.23;;;4.53;;
6356;SDS011;3211;53.452;-2.264;2022-11-14T14:44:35;5.10;;;4.60;;
6356;SDS011;3211;53.452;-2.264;2022-11-14T14:47:13;7.60;;;6.23;;
6356;SDS011;3211;53.452;-2.264;2022-11-14T14:49:41;7.00;;;5.53;;
6356;SDS011;3211;53.452;-2.264;2022-11-14T14:52:20;11.27;;;6.83;;
6356;SDS011;3211;53.452;-2.264;2022-11-14T14:54:53;7.20;;;5.70;;
6356;SDS011;3211;53.452;-2.264;2022-11-14T14:57:39;8.20;;;6.10;;
6356;SDS011;3211;53.452;-2.264;2022-11-14T15:00:16;8.60;;;6.33;;
6356;SDS011;3211;53.452;-2.264;2022-11-14T15:02:45;8.23;;;5.90;;
6356;SDS011;3211;53.452;-2.264;2022-11-14T15:05:20;9.10;;;6.20;;
6356;SDS011;3211;53.452;-2.264;2022-11-14T15:07:49;9.83;;;6.47;;
6356;SDS011;3211;53.452;-2.264;2022-11-14T15:10:19;9.47;;;6.50;;
6356;SDS011;3211;53.452;-2.264;2022-11-14T15:12:48;8.60;;;6.40;;
6356;SDS011;3211;53.452;-2.264;2022-11-14T15:15:18;9.57;;;6.33;;
6356;SDS011;3211;53.452;-2.264;2022-11-14T15:17:46;7.87;;;6.37;;
6356;SDS011;3211;53.452;-2.264;2022-11-14T15:20:19;8.87;;;6.40;;
6356;SDS011;3211;53.452;-2.264;2022-11-14T15:23:15;9.20;;;6.90;;
6356;SDS011;3211;53.452;-2.264;2022-11-14T15:25:44;9.20;;;6.83;;
6356;SDS011;3211;53.452;-2.264;2022-11-14T15:28:28;13.00;;;8.13;;
6356;SDS011;3211;53.452;-2.264;2022-11-14T15:30:56;11.00;;;7.80;;
6356;SDS011;3211;53.452;-2.264;2022-11-14T15:33:25;11.50;;;7.17;;
6356;SDS011;3211;53.452;-2.264;2022-11-14T15:39:00;15.23;;;7.83;;
6356;SDS011;3211;53.452;-2.264;2022-11-14T15:41:28;10.07;;;7.57;;
6356;SDS011;3211;53.452;-2.264;2022-11-14T15:44:27;10.83;;;7.57;;
6356;SDS011;3211;53.452;-2.264;2022-11-14T15:46:55;10.53;;;7.13;;
6356;SDS011;3211;53.452;-2.264;2022-11-14T15:49:24;9.23;;;7.63;;
6356;SDS011;3211;53.452;-2.264;2022-11-14T15:51:53;11.63;;;7.77;;
6356;SDS011;3211;53.452;-2.264;2022-11-14T15:54:41;10.03;;;7.80;;
6356;SDS011;3211;53.452;-2.264;2022-11-14T15:57:11;9.37;;;7.13;;
6356;SDS011;3211;53.452;-2.264;2022-11-14T15:59:39;10.10;;;8.37;;
6356;SDS011;3211;53.452;-2.264;2022-11-14T16:02:09;11.17;;;7.57;;
6356;SDS011;3211;53.452;-2.264;2022-11-14T16:04:39;10.93;;;7.80;;
6356;SDS011;3211;53.452;-2.264;2022-11-14T16:07:08;10.67;;;7.20;;
6356;SDS011;3211;53.452;-2.264;2022-11-14T16:09:36;10.60;;;7.87;;
6356;SDS011;3211;53.452;-2.264;2022-11-14T16:12:08;14.90;;;9.07;;
6356;SDS011;3211;53.452;-2.264;2022-11-14T16:14:35;11.10;;;7.80;;
6356;SDS011;3211;53.452;-2.264;2022-11-14T16:17:07;13.17;;;7.80;;